ELY363 LLBG-LOWW
Flight info
| Callsign | ELY363 |
|---|---|
| Flight time | N/A |
| Altitude | 32000 |
| Route | SUVAS DCT TEZAK L324 SAFTA DCT MAROS DCT LUTIG DCT EXELA UN127 LMO/N0445F340 DCT EVIVI DCT OKANA DCT ESIRI DCT DONIV DCT PARAK DCT BALUX DCT TORNO DCT NATEX NATEX2W |
| Aircraft | B738/M-SDE2E3FGHIJ1LORVWXY/LB1 |
Departure
| Time | 2026-05-04 10:32 |
|---|---|
| Airport | Ben Gurion International Airport (LLBG) |
Arrival
| Time | N/A |
|---|---|
| Airport | Vienna International Airport (LOWW) |
| Time | Latitude | Longitude | Altitude | Speed | Heading |
|---|---|---|---|---|---|
| 2026-05-04 09:35 | 32.00059 | 34.87757 | 119 ft | 0 kts | 120° |
| 2026-05-04 10:19 | 32.00070 | 34.87735 | 114 ft | 4 kts | 122° |
| 2026-05-04 10:19 | 32.00086 | 34.87714 | 114 ft | 1 kts | 147° |
| 2026-05-04 10:20 | 32.00102 | 34.87697 | 115 ft | 4 kts | 109° |
| 2026-05-04 10:20 | 32.00100 | 34.87671 | 116 ft | 4 kts | 51° |
| 2026-05-04 10:20 | 32.00090 | 34.87659 | 114 ft | 0 kts | 32° |
| 2026-05-04 10:25 | 32.00568 | 34.87927 | 118 ft | 19 kts | 349° |
| 2026-05-04 10:25 | 32.00636 | 34.87953 | 119 ft | 0 kts | 31° |
| 2026-05-04 10:26 | 32.00646 | 34.87960 | 117 ft | 6 kts | 31° |
| 2026-05-04 10:26 | 32.00711 | 34.88007 | 117 ft | 16 kts | 31° |
| 2026-05-04 10:26 | 32.00831 | 34.88095 | 118 ft | 25 kts | 32° |
| 2026-05-04 10:27 | 32.01007 | 34.88221 | 117 ft | 34 kts | 32° |
| 2026-05-04 10:27 | 32.01222 | 34.88377 | 116 ft | 38 kts | 33° |
| 2026-05-04 10:27 | 32.01416 | 34.88612 | 117 ft | 43 kts | 56° |
| 2026-05-04 10:27 | 32.01512 | 34.88948 | 117 ft | 43 kts | 80° |
| 2026-05-04 10:28 | 32.01583 | 34.89155 | 117 ft | 18 kts | 14° |
| 2026-05-04 10:28 | 32.01638 | 34.89153 | 116 ft | 0 kts | 349° |
| 2026-05-04 10:30 | 32.01652 | 34.89149 | 115 ft | 6 kts | 349° |
| 2026-05-04 10:30 | 32.01725 | 34.89123 | 116 ft | 15 kts | 322° |
| 2026-05-04 10:30 | 32.01736 | 34.89028 | 119 ft | 0 kts | 259° |
| 2026-05-04 10:31 | 32.01736 | 34.89027 | 119 ft | 3 kts | 259° |
| 2026-05-04 10:31 | 32.01731 | 34.88995 | 118 ft | 0 kts | 260° |
| 2026-05-04 10:32 | 32.01108 | 34.84930 | 1637 ft | 152 kts | 256° |
| 2026-05-04 10:33 | 32.00847 | 34.83682 | 2263 ft | 165 kts | 257° |
| 2026-05-04 10:33 | 32.00556 | 34.82276 | 2584 ft | 186 kts | 257° |
| 2026-05-04 10:33 | 32.00245 | 34.80702 | 2721 ft | 209 kts | 256° |
| 2026-05-04 10:33 | 31.99891 | 34.79007 | 3205 ft | 217 kts | 256° |
| 2026-05-04 10:34 | 31.99516 | 34.77205 | 3483 ft | 237 kts | 259° |
| 2026-05-04 10:34 | 31.99610 | 34.75310 | 4283 ft | 233 kts | 285° |
| 2026-05-04 10:34 | 31.99941 | 34.74073 | 4718 ft | 239 kts | 284° |
| 2026-05-04 10:34 | 32.00581 | 34.71572 | 5624 ft | 239 kts | 283° |
| 2026-05-04 10:35 | 32.01043 | 34.69684 | 6313 ft | 240 kts | 283° |
| 2026-05-04 10:35 | 32.01498 | 34.67786 | 6984 ft | 240 kts | 282° |
| 2026-05-04 10:35 | 32.01801 | 34.66500 | 7390 ft | 243 kts | 281° |
| 2026-05-04 10:35 | 32.02248 | 34.64578 | 7902 ft | 248 kts | 281° |
| 2026-05-04 10:36 | 32.02713 | 34.62591 | 8603 ft | 247 kts | 281° |
| 2026-05-04 10:36 | 32.03161 | 34.60645 | 9316 ft | 247 kts | 281° |
| 2026-05-04 10:36 | 32.03625 | 34.58706 | 9885 ft | 252 kts | 280° |
| 2026-05-04 10:36 | 32.04086 | 34.56685 | 10285 ft | 262 kts | 279° |
| 2026-05-04 10:37 | 32.04563 | 34.54529 | 10419 ft | 281 kts | 280° |
| 2026-05-04 10:37 | 32.05073 | 34.52222 | 10576 ft | 300 kts | 280° |
| 2026-05-04 10:37 | 32.05619 | 34.49767 | 10717 ft | 318 kts | 281° |
| 2026-05-04 10:37 | 32.06194 | 34.47201 | 11068 ft | 327 kts | 281° |
| 2026-05-04 10:39 | 32.09757 | 34.31381 | 14752 ft | 337 kts | 280° |
| 2026-05-04 10:39 | 32.10350 | 34.28734 | 15382 ft | 338 kts | 280° |
| 2026-05-04 10:39 | 32.10950 | 34.26052 | 15999 ft | 339 kts | 279° |
| 2026-05-04 10:40 | 32.11552 | 34.23362 | 16630 ft | 339 kts | 279° |
| 2026-05-04 10:40 | 32.12155 | 34.20661 | 17233 ft | 341 kts | 279° |
| 2026-05-04 10:40 | 32.12758 | 34.17953 | 17795 ft | 343 kts | 279° |
| 2026-05-04 10:40 | 32.13365 | 34.15225 | 18369 ft | 344 kts | 279° |
| 2026-05-04 10:41 | 32.13976 | 34.12480 | 18864 ft | 346 kts | 279° |
| 2026-05-04 10:41 | 32.14589 | 34.09724 | 19341 ft | 348 kts | 279° |
| 2026-05-04 10:41 | 32.15206 | 34.06946 | 19806 ft | 350 kts | 278° |
| 2026-05-04 10:41 | 32.15824 | 34.04156 | 20279 ft | 352 kts | 278° |
| 2026-05-04 10:42 | 32.16482 | 34.01398 | 20738 ft | 357 kts | 283° |
| 2026-05-04 10:42 | 32.17461 | 33.98667 | 21195 ft | 365 kts | 289° |
| 2026-05-04 10:42 | 32.18781 | 33.96059 | 21625 ft | 375 kts | 296° |
| 2026-05-04 10:42 | 32.20298 | 33.93529 | 22048 ft | 378 kts | 297° |
| 2026-05-04 10:43 | 32.21839 | 33.90998 | 22485 ft | 381 kts | 297° |
| 2026-05-04 10:44 | 32.32791 | 33.72902 | 25083 ft | 393 kts | 296° |
| 2026-05-04 10:45 | 32.34374 | 33.70265 | 25416 ft | 394 kts | 296° |
| 2026-05-04 10:45 | 32.35961 | 33.67617 | 25750 ft | 395 kts | 296° |
| 2026-05-04 10:45 | 32.37551 | 33.64962 | 26050 ft | 397 kts | 296° |
| 2026-05-04 10:45 | 32.39150 | 33.62290 | 26353 ft | 399 kts | 296° |
| 2026-05-04 10:46 | 32.40753 | 33.59609 | 26651 ft | 400 kts | 296° |
| 2026-05-04 10:46 | 32.42364 | 33.56914 | 26951 ft | 401 kts | 296° |
| 2026-05-04 10:46 | 32.43980 | 33.54208 | 27222 ft | 403 kts | 296° |
| 2026-05-04 10:46 | 32.45602 | 33.51490 | 27482 ft | 405 kts | 296° |
| 2026-05-04 10:47 | 32.47225 | 33.48770 | 27878 ft | 404 kts | 296° |
| 2026-05-04 10:47 | 32.48842 | 33.46063 | 28358 ft | 400 kts | 296° |
| 2026-05-04 10:47 | 32.50445 | 33.43377 | 28773 ft | 399 kts | 295° |
| 2026-05-04 10:47 | 32.52044 | 33.40691 | 29110 ft | 399 kts | 295° |
| 2026-05-04 10:49 | 32.63138 | 33.21991 | 31267 ft | 397 kts | 295° |
| 2026-05-04 10:49 | 32.64725 | 33.19307 | 31464 ft | 398 kts | 295° |
| 2026-05-04 10:50 | 32.66318 | 33.16611 | 31714 ft | 398 kts | 295° |
| 2026-05-04 10:51 | 32.77413 | 32.97802 | 32024 ft | 395 kts | 295° |
| 2026-05-04 10:52 | 32.78984 | 32.95130 | 32026 ft | 394 kts | 295° |
| 2026-05-04 10:52 | 32.82115 | 32.89798 | 32026 ft | 393 kts | 295° |
| 2026-05-04 10:54 | 32.94658 | 32.68354 | 32018 ft | 398 kts | 295° |
| 2026-05-04 10:56 | 33.07386 | 32.46480 | 32009 ft | 404 kts | 295° |
| 2026-05-04 10:57 | 33.10561 | 32.41003 | 32011 ft | 404 kts | 295° |
| 2026-05-04 10:57 | 33.13758 | 32.35480 | 32006 ft | 404 kts | 295° |
| 2026-05-04 10:58 | 33.16950 | 32.29958 | 32006 ft | 404 kts | 295° |
| 2026-05-04 10:58 | 33.20133 | 32.24443 | 32003 ft | 403 kts | 295° |
| 2026-05-04 10:59 | 33.23315 | 32.18921 | 32004 ft | 402 kts | 295° |
| 2026-05-04 10:59 | 33.26482 | 32.13417 | 31993 ft | 402 kts | 295° |
| 2026-05-04 11:00 | 33.29630 | 32.07935 | 32010 ft | 402 kts | 295° |
| 2026-05-04 11:02 | 33.42263 | 31.85860 | 32000 ft | 402 kts | 295° |
| 2026-05-04 11:05 | 33.81434 | 31.60091 | 31988 ft | 431 kts | 313° |
| 2026-05-04 11:06 | 33.86235 | 31.55804 | 31980 ft | 433 kts | 314° |
| 2026-05-04 11:06 | 33.91120 | 31.51473 | 31974 ft | 433 kts | 314° |
| 2026-05-04 11:10 | 34.24870 | 31.21439 | 31965 ft | 429 kts | 314° |
| 2026-05-04 11:12 | 34.44037 | 31.04241 | 31953 ft | 429 kts | 314° |
| 2026-05-04 11:12 | 34.48826 | 30.99928 | 31953 ft | 429 kts | 315° |
| 2026-05-04 11:13 | 34.53587 | 30.95633 | 31949 ft | 429 kts | 315° |
| 2026-05-04 11:13 | 34.58382 | 30.91302 | 31949 ft | 430 kts | 315° |
| 2026-05-04 11:14 | 34.63176 | 30.86944 | 31943 ft | 430 kts | 314° |
| 2026-05-04 11:16 | 34.81996 | 30.68876 | 31931 ft | 432 kts | 314° |
| 2026-05-04 11:16 | 34.86722 | 30.64335 | 31937 ft | 433 kts | 314° |
| 2026-05-04 11:17 | 34.91452 | 30.59783 | 31932 ft | 434 kts | 314° |
| 2026-05-04 11:19 | 35.10380 | 30.41496 | 31920 ft | 435 kts | 315° |
| 2026-05-04 11:19 | 35.15127 | 30.36893 | 31922 ft | 435 kts | 315° |
| 2026-05-04 11:20 | 35.19867 | 30.32288 | 31916 ft | 436 kts | 315° |
| 2026-05-04 11:20 | 35.24618 | 30.27667 | 31917 ft | 436 kts | 315° |
| 2026-05-04 11:22 | 35.42740 | 30.09970 | 31906 ft | 435 kts | 316° |
| 2026-05-04 11:23 | 35.47472 | 30.05332 | 31905 ft | 435 kts | 316° |
| 2026-05-04 11:25 | 35.63675 | 29.88685 | 31900 ft | 433 kts | 314° |
| 2026-05-04 11:25 | 35.68225 | 29.83861 | 31899 ft | 432 kts | 315° |
| 2026-05-04 11:27 | 35.88674 | 29.62180 | 31891 ft | 430 kts | 315° |
| 2026-05-04 11:28 | 35.93222 | 29.57338 | 31891 ft | 430 kts | 315° |
| 2026-05-04 11:28 | 35.97765 | 29.52549 | 31893 ft | 430 kts | 316° |
| 2026-05-04 11:29 | 36.02386 | 29.47880 | 31905 ft | 430 kts | 317° |
| 2026-05-04 11:29 | 36.07017 | 29.43204 | 31891 ft | 431 kts | 317° |
| 2026-05-04 11:33 | 36.39239 | 29.09776 | 31908 ft | 433 kts | 317° |
| 2026-05-04 11:33 | 36.43818 | 29.04938 | 31915 ft | 433 kts | 317° |
| 2026-05-04 11:34 | 36.48409 | 29.00080 | 31922 ft | 433 kts | 317° |
| 2026-05-04 11:34 | 36.53008 | 28.95207 | 31929 ft | 434 kts | 317° |
| 2026-05-04 11:35 | 36.57599 | 28.90336 | 31933 ft | 434 kts | 318° |
| 2026-05-04 11:35 | 36.62172 | 28.85475 | 31940 ft | 434 kts | 317° |
| 2026-05-04 11:36 | 36.66771 | 28.80579 | 31939 ft | 434 kts | 318° |
| 2026-05-04 11:36 | 36.71346 | 28.75713 | 31937 ft | 433 kts | 318° |
| 2026-05-04 11:37 | 36.75946 | 28.70847 | 31943 ft | 433 kts | 318° |
| 2026-05-04 11:37 | 36.80546 | 28.65976 | 31942 ft | 433 kts | 319° |
| 2026-05-04 11:38 | 36.85142 | 28.61096 | 31932 ft | 433 kts | 319° |
| 2026-05-04 11:38 | 36.89728 | 28.56217 | 31944 ft | 433 kts | 319° |
| 2026-05-04 11:39 | 36.94278 | 28.51367 | 31947 ft | 432 kts | 319° |
| 2026-05-04 11:41 | 37.10235 | 28.34271 | 31959 ft | 430 kts | 319° |
| 2026-05-04 11:41 | 37.14742 | 28.29334 | 31964 ft | 430 kts | 319° |
| 2026-05-04 11:42 | 37.19268 | 28.24439 | 31971 ft | 429 kts | 320° |
| 2026-05-04 11:42 | 37.23820 | 28.19571 | 31965 ft | 429 kts | 320° |
| 2026-05-04 11:43 | 37.28322 | 28.14734 | 31982 ft | 428 kts | 320° |
| 2026-05-04 11:43 | 37.32828 | 28.09861 | 31976 ft | 428 kts | 320° |
| 2026-05-04 11:44 | 37.37315 | 28.04954 | 31904 ft | 425 kts | 321° |
| 2026-05-04 11:44 | 37.41749 | 28.00092 | 31992 ft | 420 kts | 321° |
| 2026-05-04 11:45 | 37.46156 | 27.95258 | 32000 ft | 419 kts | 322° |
| 2026-05-04 11:45 | 37.50540 | 27.90444 | 32003 ft | 418 kts | 322° |
| 2026-05-04 11:46 | 37.54916 | 27.85632 | 31999 ft | 418 kts | 321° |
| 2026-05-04 11:46 | 37.59301 | 27.80801 | 32009 ft | 419 kts | 321° |
| 2026-05-04 11:47 | 37.63688 | 27.75960 | 32018 ft | 420 kts | 321° |
| 2026-05-04 11:47 | 37.68118 | 27.71064 | 32017 ft | 423 kts | 321° |
| 2026-05-04 11:48 | 37.72522 | 27.66186 | 32028 ft | 425 kts | 321° |
| 2026-05-04 11:48 | 37.76992 | 27.61227 | 32019 ft | 428 kts | 321° |
| 2026-05-04 11:49 | 37.81480 | 27.56242 | 32025 ft | 430 kts | 321° |
| 2026-05-04 11:49 | 37.85967 | 27.51248 | 32043 ft | 430 kts | 321° |
| 2026-05-04 11:50 | 37.90474 | 27.46240 | 32048 ft | 431 kts | 321° |
| 2026-05-04 11:50 | 37.94983 | 27.41295 | 32049 ft | 431 kts | 322° |
| 2026-05-04 11:51 | 37.99521 | 27.36320 | 32042 ft | 431 kts | 321° |
| 2026-05-04 11:51 | 38.04049 | 27.31339 | 32043 ft | 430 kts | 321° |
| 2026-05-04 11:52 | 38.08566 | 27.26357 | 32043 ft | 430 kts | 321° |
| 2026-05-04 11:52 | 38.13077 | 27.21372 | 32036 ft | 429 kts | 321° |
| 2026-05-04 11:53 | 38.17577 | 27.16391 | 32043 ft | 428 kts | 321° |
| 2026-05-04 11:53 | 38.22070 | 27.11410 | 32057 ft | 428 kts | 321° |
| 2026-05-04 11:55 | 38.40092 | 26.91440 | 32046 ft | 431 kts | 322° |
| 2026-05-04 11:56 | 38.44633 | 26.86425 | 32050 ft | 432 kts | 321° |
| 2026-05-04 11:56 | 38.49181 | 26.81389 | 32048 ft | 433 kts | 321° |
| 2026-05-04 11:57 | 38.53737 | 26.76332 | 32050 ft | 434 kts | 321° |
| 2026-05-04 11:57 | 38.58303 | 26.71254 | 32057 ft | 435 kts | 321° |
| 2026-05-04 11:58 | 38.62844 | 26.66197 | 32057 ft | 435 kts | 321° |
| 2026-05-04 11:58 | 38.67416 | 26.61095 | 32060 ft | 436 kts | 321° |
| 2026-05-04 11:59 | 38.71986 | 26.55988 | 32063 ft | 437 kts | 321° |
| 2026-05-04 11:59 | 38.76593 | 26.50883 | 32070 ft | 437 kts | 322° |
| 2026-05-04 12:00 | 38.81189 | 26.45853 | 32076 ft | 437 kts | 322° |
| 2026-05-04 12:00 | 38.85812 | 26.40782 | 32078 ft | 437 kts | 322° |
| 2026-05-04 12:01 | 38.90440 | 26.35686 | 32083 ft | 437 kts | 322° |
| 2026-05-04 12:02 | 39.06599 | 26.17797 | 32077 ft | 439 kts | 322° |
| 2026-05-04 12:03 | 39.11199 | 26.12684 | 32074 ft | 440 kts | 322° |
| 2026-05-04 12:03 | 39.15830 | 26.07527 | 32079 ft | 440 kts | 322° |
| 2026-05-04 12:04 | 39.20467 | 26.02354 | 32091 ft | 441 kts | 322° |
| 2026-05-04 12:04 | 39.25106 | 25.97170 | 32094 ft | 442 kts | 322° |
| 2026-05-04 12:05 | 39.28971 | 25.92843 | 32086 ft | 443 kts | 322° |
| 2026-05-04 12:05 | 39.33627 | 25.87622 | 32097 ft | 443 kts | 322° |
| 2026-05-04 12:06 | 39.38278 | 25.82397 | 32093 ft | 443 kts | 322° |
| 2026-05-04 12:06 | 39.42932 | 25.77159 | 32098 ft | 444 kts | 322° |
| 2026-05-04 12:07 | 39.47594 | 25.71903 | 32103 ft | 444 kts | 322° |
| 2026-05-04 12:07 | 39.52235 | 25.66661 | 32097 ft | 444 kts | 321° |
| 2026-05-04 12:08 | 39.56899 | 25.61383 | 32103 ft | 445 kts | 321° |
| 2026-05-04 12:08 | 39.61558 | 25.56100 | 32099 ft | 445 kts | 321° |
| 2026-05-04 12:09 | 39.66204 | 25.50823 | 32099 ft | 446 kts | 321° |
| 2026-05-04 12:09 | 39.70866 | 25.45518 | 32101 ft | 446 kts | 321° |
| 2026-05-04 12:10 | 39.75555 | 25.40171 | 32102 ft | 447 kts | 321° |
| 2026-05-04 12:10 | 39.80231 | 25.34829 | 32104 ft | 448 kts | 321° |
| 2026-05-04 12:11 | 39.84890 | 25.29497 | 32100 ft | 448 kts | 321° |
| 2026-05-04 12:11 | 39.89585 | 25.24114 | 32101 ft | 449 kts | 321° |
| 2026-05-04 12:12 | 39.94272 | 25.18730 | 32108 ft | 449 kts | 321° |
| 2026-05-04 12:12 | 39.98955 | 25.13340 | 32100 ft | 450 kts | 321° |
| 2026-05-04 12:14 | 40.17664 | 24.91703 | 32107 ft | 450 kts | 321° |
| 2026-05-04 12:15 | 40.22341 | 24.86268 | 32102 ft | 450 kts | 321° |
| 2026-05-04 12:15 | 40.27017 | 24.80824 | 32103 ft | 450 kts | 321° |
| 2026-05-04 12:16 | 40.31694 | 24.75368 | 32101 ft | 450 kts | 320° |
| 2026-05-04 12:16 | 40.36365 | 24.69909 | 32100 ft | 450 kts | 320° |
| 2026-05-04 12:17 | 40.41039 | 24.64436 | 32100 ft | 450 kts | 320° |
| 2026-05-04 12:17 | 40.45703 | 24.58962 | 32101 ft | 450 kts | 320° |
| 2026-05-04 12:18 | 40.50368 | 24.53478 | 32098 ft | 450 kts | 320° |
| 2026-05-04 12:18 | 40.55023 | 24.47996 | 32099 ft | 450 kts | 320° |
| 2026-05-04 12:19 | 40.59689 | 24.42489 | 32097 ft | 450 kts | 320° |
| 2026-05-04 12:19 | 40.64317 | 24.37016 | 32094 ft | 450 kts | 320° |
| 2026-05-04 12:20 | 40.68977 | 24.31494 | 32092 ft | 449 kts | 320° |
| 2026-05-04 12:20 | 40.73599 | 24.26008 | 32090 ft | 449 kts | 320° |
| 2026-05-04 12:21 | 40.78240 | 24.20488 | 32092 ft | 449 kts | 320° |
| 2026-05-04 12:21 | 40.82873 | 24.14966 | 32084 ft | 449 kts | 319° |
| 2026-05-04 12:22 | 40.87513 | 24.09425 | 32092 ft | 449 kts | 319° |
| 2026-05-04 12:22 | 40.92146 | 24.03882 | 32077 ft | 449 kts | 319° |
| 2026-05-04 12:23 | 40.96763 | 23.98346 | 32085 ft | 448 kts | 319° |
| 2026-05-04 12:23 | 41.01351 | 23.92835 | 32084 ft | 448 kts | 319° |
| 2026-05-04 12:24 | 41.05966 | 23.87281 | 32081 ft | 448 kts | 319° |
| 2026-05-04 12:24 | 41.10576 | 23.81721 | 32082 ft | 448 kts | 319° |
| 2026-05-04 12:25 | 41.15181 | 23.76156 | 32078 ft | 448 kts | 319° |
| 2026-05-04 12:25 | 41.19795 | 23.70569 | 32070 ft | 448 kts | 319° |
| 2026-05-04 12:26 | 41.24391 | 23.64993 | 32088 ft | 448 kts | 319° |
| 2026-05-04 12:26 | 41.28958 | 23.59440 | 32082 ft | 448 kts | 319° |
| 2026-05-04 12:27 | 41.33552 | 23.53843 | 32078 ft | 448 kts | 319° |
| 2026-05-04 12:27 | 41.38141 | 23.48244 | 32082 ft | 447 kts | 319° |
| 2026-05-04 12:28 | 41.43195 | 23.43528 | 32085 ft | 442 kts | 335° |
| 2026-05-04 12:28 | 41.48715 | 23.39972 | 32085 ft | 441 kts | 336° |
| 2026-05-04 12:29 | 41.54223 | 23.36474 | 32085 ft | 440 kts | 336° |
| 2026-05-04 12:29 | 41.59730 | 23.32915 | 32090 ft | 440 kts | 335° |
| 2026-05-04 12:30 | 41.65224 | 23.29323 | 32087 ft | 439 kts | 335° |
| 2026-05-04 12:30 | 41.70700 | 23.25723 | 32088 ft | 439 kts | 335° |
| 2026-05-04 12:31 | 41.76179 | 23.22116 | 32095 ft | 438 kts | 335° |
| 2026-05-04 12:31 | 41.81651 | 23.18508 | 32086 ft | 438 kts | 335° |
| 2026-05-04 12:32 | 41.89870 | 23.13076 | 32089 ft | 438 kts | 335° |
| 2026-05-04 12:33 | 41.95345 | 23.09449 | 32094 ft | 438 kts | 335° |
| 2026-05-04 12:33 | 42.00776 | 23.05844 | 32083 ft | 439 kts | 335° |
| 2026-05-04 12:34 | 42.06251 | 23.02202 | 32102 ft | 439 kts | 335° |
| 2026-05-04 12:34 | 42.11732 | 22.98549 | 32084 ft | 440 kts | 335° |
| 2026-05-04 12:35 | 42.17211 | 22.94891 | 32103 ft | 439 kts | 335° |
| 2026-05-04 12:35 | 42.22690 | 22.91226 | 32095 ft | 440 kts | 335° |
| 2026-05-04 12:36 | 42.28176 | 22.87549 | 32096 ft | 440 kts | 336° |
| 2026-05-04 12:36 | 42.33653 | 22.83870 | 32095 ft | 439 kts | 336° |
| 2026-05-04 12:37 | 42.39116 | 22.80194 | 32107 ft | 438 kts | 336° |
| 2026-05-04 12:37 | 42.44564 | 22.76521 | 32096 ft | 437 kts | 335° |
| 2026-05-04 12:38 | 42.50001 | 22.72844 | 32100 ft | 436 kts | 335° |
| 2026-05-04 12:38 | 42.55430 | 22.69171 | 32101 ft | 435 kts | 336° |
| 2026-05-04 12:39 | 42.60797 | 22.65533 | 32108 ft | 433 kts | 336° |
| 2026-05-04 12:39 | 42.66167 | 22.61884 | 32097 ft | 430 kts | 335° |
| 2026-05-04 12:40 | 42.71510 | 22.58245 | 32114 ft | 428 kts | 335° |
| 2026-05-04 12:40 | 42.76838 | 22.54611 | 32100 ft | 426 kts | 336° |
| 2026-05-04 12:41 | 42.82100 | 22.51013 | 32103 ft | 425 kts | 335° |
| 2026-05-04 12:41 | 42.87381 | 22.47405 | 32104 ft | 424 kts | 335° |
| 2026-05-04 12:42 | 42.92666 | 22.43819 | 32111 ft | 424 kts | 335° |
| 2026-05-04 12:42 | 42.97948 | 22.40231 | 32115 ft | 423 kts | 335° |
| 2026-05-04 12:43 | 43.03222 | 22.36637 | 32115 ft | 424 kts | 335° |
| 2026-05-04 12:43 | 43.08514 | 22.33023 | 32109 ft | 424 kts | 335° |
| 2026-05-04 12:44 | 43.13789 | 22.29411 | 32111 ft | 424 kts | 335° |
| 2026-05-04 12:44 | 43.19067 | 22.25791 | 32115 ft | 424 kts | 335° |
| 2026-05-04 12:45 | 43.24299 | 22.22195 | 32107 ft | 423 kts | 335° |
| 2026-05-04 12:45 | 43.29545 | 22.18582 | 32116 ft | 421 kts | 335° |
| 2026-05-04 12:46 | 43.34768 | 22.14979 | 32106 ft | 419 kts | 335° |
| 2026-05-04 12:46 | 43.39964 | 22.11387 | 32117 ft | 417 kts | 335° |
| 2026-05-04 12:47 | 43.45131 | 22.07808 | 32117 ft | 415 kts | 335° |
| 2026-05-04 12:47 | 43.50272 | 22.04241 | 32120 ft | 413 kts | 336° |
| 2026-05-04 12:48 | 43.55397 | 22.00678 | 32114 ft | 412 kts | 336° |
| 2026-05-04 12:48 | 43.60507 | 21.97119 | 32115 ft | 411 kts | 336° |
| 2026-05-04 12:49 | 43.65602 | 21.93563 | 32103 ft | 410 kts | 336° |
| 2026-05-04 12:49 | 43.70692 | 21.90004 | 32110 ft | 410 kts | 336° |
| 2026-05-04 12:50 | 43.75781 | 21.86439 | 32106 ft | 409 kts | 336° |
| 2026-05-04 12:50 | 43.80861 | 21.82874 | 32098 ft | 410 kts | 336° |
| 2026-05-04 12:51 | 43.85922 | 21.79314 | 32122 ft | 410 kts | 336° |
| 2026-05-04 12:51 | 43.91011 | 21.75728 | 32118 ft | 411 kts | 336° |
| 2026-05-04 12:52 | 43.96118 | 21.72122 | 32119 ft | 411 kts | 336° |
| 2026-05-04 12:52 | 44.00353 | 21.69127 | 32125 ft | 411 kts | 335° |
| 2026-05-04 12:53 | 44.05462 | 21.65508 | 32116 ft | 411 kts | 335° |
| 2026-05-04 12:53 | 44.10566 | 21.61884 | 32119 ft | 411 kts | 335° |
| 2026-05-04 12:54 | 44.15662 | 21.58258 | 32117 ft | 411 kts | 335° |
| 2026-05-04 12:54 | 44.20714 | 21.54658 | 32119 ft | 410 kts | 335° |
| 2026-05-04 12:55 | 44.25792 | 21.51031 | 32113 ft | 409 kts | 335° |
| 2026-05-04 12:55 | 44.30859 | 21.47406 | 32123 ft | 408 kts | 335° |
| 2026-05-04 12:56 | 44.35927 | 21.43844 | 32126 ft | 407 kts | 336° |
| 2026-05-04 12:56 | 44.41019 | 21.40376 | 32121 ft | 406 kts | 336° |
| 2026-05-04 12:57 | 44.46101 | 21.36905 | 32119 ft | 406 kts | 336° |
| 2026-05-04 12:57 | 44.51111 | 21.33464 | 32123 ft | 406 kts | 336° |
| 2026-05-04 12:58 | 44.56178 | 21.29970 | 32124 ft | 406 kts | 336° |
| 2026-05-04 12:58 | 44.61245 | 21.26470 | 32123 ft | 406 kts | 336° |
| 2026-05-04 12:59 | 44.66312 | 21.22962 | 32125 ft | 406 kts | 336° |
| 2026-05-04 12:59 | 44.71359 | 21.19462 | 32123 ft | 407 kts | 336° |
| 2026-05-04 13:00 | 44.76449 | 21.15903 | 32123 ft | 408 kts | 335° |
| 2026-05-04 13:00 | 44.81481 | 21.12192 | 32120 ft | 409 kts | 334° |
| 2026-05-04 13:01 | 44.86515 | 21.08427 | 32122 ft | 410 kts | 334° |
| 2026-05-04 13:01 | 44.91534 | 21.04678 | 32125 ft | 410 kts | 334° |
| 2026-05-04 13:02 | 44.96584 | 21.00912 | 32128 ft | 410 kts | 334° |
| 2026-05-04 13:02 | 45.01636 | 20.97142 | 32122 ft | 411 kts | 334° |
| 2026-05-04 13:03 | 45.06693 | 20.93361 | 32122 ft | 411 kts | 334° |
| 2026-05-04 13:03 | 45.11744 | 20.89576 | 32125 ft | 410 kts | 334° |
| 2026-05-04 13:04 | 45.16787 | 20.85791 | 32125 ft | 410 kts | 334° |
| 2026-05-04 13:04 | 45.21841 | 20.81989 | 32118 ft | 410 kts | 334° |
| 2026-05-04 13:05 | 45.26870 | 20.78199 | 32121 ft | 409 kts | 334° |
| 2026-05-04 13:05 | 45.31851 | 20.74437 | 32129 ft | 408 kts | 334° |
| 2026-05-04 13:06 | 45.36866 | 20.70642 | 32121 ft | 408 kts | 334° |
| 2026-05-04 13:06 | 45.41872 | 20.66846 | 32122 ft | 407 kts | 334° |
| 2026-05-04 13:07 | 45.46874 | 20.63045 | 32122 ft | 407 kts | 334° |
| 2026-05-04 13:07 | 45.51849 | 20.59258 | 32121 ft | 407 kts | 334° |
| 2026-05-04 13:08 | 45.56847 | 20.55444 | 32122 ft | 407 kts | 334° |
| 2026-05-04 13:08 | 45.61842 | 20.51627 | 32121 ft | 408 kts | 333° |
| 2026-05-04 13:09 | 45.66857 | 20.47785 | 32119 ft | 408 kts | 333° |
| 2026-05-04 13:09 | 45.71861 | 20.43944 | 32119 ft | 408 kts | 333° |
| 2026-05-04 13:10 | 45.76867 | 20.40093 | 32117 ft | 409 kts | 333° |
| 2026-05-04 13:10 | 45.81880 | 20.36229 | 32112 ft | 409 kts | 333° |
| 2026-05-04 13:11 | 45.86898 | 20.32353 | 32109 ft | 409 kts | 333° |
| 2026-05-04 13:11 | 45.91907 | 20.28477 | 32111 ft | 409 kts | 333° |
| 2026-05-04 13:12 | 45.96919 | 20.24589 | 32110 ft | 409 kts | 333° |
| 2026-05-04 13:12 | 46.01897 | 20.20720 | 32110 ft | 409 kts | 333° |
| 2026-05-04 13:13 | 46.06910 | 20.16816 | 32105 ft | 410 kts | 333° |
| 2026-05-04 13:13 | 46.11920 | 20.12906 | 32109 ft | 410 kts | 333° |
| 2026-05-04 13:14 | 46.16935 | 20.08982 | 32114 ft | 410 kts | 333° |
| 2026-05-04 13:14 | 46.21928 | 20.05003 | 32108 ft | 410 kts | 332° |
| 2026-05-04 13:15 | 46.26906 | 20.00998 | 32102 ft | 410 kts | 332° |
| 2026-05-04 13:15 | 46.31871 | 19.96999 | 32101 ft | 410 kts | 332° |
| 2026-05-04 13:16 | 46.36849 | 19.92987 | 32105 ft | 410 kts | 332° |
| 2026-05-04 13:16 | 46.41861 | 19.88940 | 32097 ft | 411 kts | 332° |
| 2026-05-04 13:17 | 46.46843 | 19.84910 | 32099 ft | 411 kts | 332° |
| 2026-05-04 13:17 | 46.51825 | 19.80872 | 32097 ft | 411 kts | 332° |
| 2026-05-04 13:18 | 46.56817 | 19.76816 | 32093 ft | 411 kts | 332° |
| 2026-05-04 13:18 | 46.61804 | 19.72756 | 32095 ft | 412 kts | 332° |
| 2026-05-04 13:19 | 46.66811 | 19.68671 | 32103 ft | 412 kts | 332° |
| 2026-05-04 13:19 | 46.71800 | 19.64591 | 32095 ft | 412 kts | 332° |
| 2026-05-04 13:20 | 46.76812 | 19.60484 | 32097 ft | 412 kts | 332° |
| 2026-05-04 13:20 | 46.81793 | 19.56395 | 32104 ft | 412 kts | 331° |
| 2026-05-04 13:21 | 46.86813 | 19.52264 | 32094 ft | 413 kts | 331° |
| 2026-05-04 13:21 | 46.91818 | 19.48136 | 32097 ft | 413 kts | 331° |
| 2026-05-04 13:22 | 46.96800 | 19.44018 | 32090 ft | 412 kts | 331° |
| 2026-05-04 13:22 | 47.01795 | 19.39880 | 32088 ft | 412 kts | 331° |
| 2026-05-04 13:23 | 47.06779 | 19.35744 | 32082 ft | 412 kts | 331° |
| 2026-05-04 13:23 | 47.11781 | 19.31582 | 32079 ft | 412 kts | 331° |
| 2026-05-04 13:24 | 47.16773 | 19.27420 | 32076 ft | 413 kts | 331° |
| 2026-05-04 13:24 | 47.21767 | 19.23247 | 32074 ft | 413 kts | 331° |
| 2026-05-04 13:25 | 47.26658 | 19.19151 | 32053 ft | 398 kts | 330° |
| 2026-05-04 13:25 | 47.29048 | 19.17146 | 32058 ft | 394 kts | 331° |
| 2026-05-04 13:25 | 47.33487 | 19.12453 | 31952 ft | 398 kts | 314° |
| 2026-05-04 13:26 | 47.35218 | 19.09254 | 31666 ft | 397 kts | 304° |
| 2026-05-04 13:26 | 47.36514 | 19.05670 | 31319 ft | 396 kts | 297° |
| 2026-05-04 13:26 | 47.37659 | 19.01998 | 30909 ft | 393 kts | 296° |
| 2026-05-04 13:26 | 47.38772 | 18.98321 | 30522 ft | 390 kts | 296° |
| 2026-05-04 13:27 | 47.39875 | 18.94676 | 30128 ft | 388 kts | 296° |
| 2026-05-04 13:27 | 47.40981 | 18.91058 | 29684 ft | 386 kts | 296° |
| 2026-05-04 13:27 | 47.42091 | 18.87457 | 29262 ft | 383 kts | 296° |
| 2026-05-04 13:27 | 47.43195 | 18.83899 | 28861 ft | 380 kts | 296° |
| 2026-05-04 13:28 | 47.44292 | 18.80370 | 28470 ft | 377 kts | 296° |
| 2026-05-04 13:28 | 47.45383 | 18.76863 | 28064 ft | 374 kts | 296° |
| 2026-05-04 13:28 | 47.46467 | 18.73376 | 27678 ft | 372 kts | 296° |
| 2026-05-04 13:28 | 47.47542 | 18.69914 | 27286 ft | 369 kts | 295° |
| 2026-05-04 13:29 | 47.48597 | 18.66509 | 26902 ft | 367 kts | 295° |
| 2026-05-04 13:29 | 47.49657 | 18.63083 | 26515 ft | 366 kts | 295° |
| 2026-05-04 13:29 | 47.50712 | 18.59672 | 26130 ft | 364 kts | 295° |
| 2026-05-04 13:29 | 47.51761 | 18.56275 | 25748 ft | 363 kts | 295° |
| 2026-05-04 13:30 | 47.52807 | 18.52882 | 25379 ft | 362 kts | 295° |
| 2026-05-04 13:30 | 47.53845 | 18.49497 | 24995 ft | 361 kts | 293° |
| 2026-05-04 13:30 | 47.54722 | 18.46008 | 24628 ft | 360 kts | 288° |
| 2026-05-04 13:30 | 47.55485 | 18.42486 | 24255 ft | 359 kts | 287° |
| 2026-05-04 13:31 | 47.56219 | 18.38947 | 23885 ft | 359 kts | 287° |
| 2026-05-04 13:31 | 47.56949 | 18.35406 | 23470 ft | 360 kts | 286° |
| 2026-05-04 13:31 | 47.57682 | 18.31870 | 23035 ft | 359 kts | 286° |
| 2026-05-04 13:31 | 47.58419 | 18.28344 | 22629 ft | 358 kts | 286° |
| 2026-05-04 13:32 | 47.59154 | 18.24839 | 22241 ft | 356 kts | 286° |
| 2026-05-04 13:32 | 47.59891 | 18.21339 | 21848 ft | 355 kts | 287° |
| 2026-05-04 13:32 | 47.60623 | 18.17861 | 21475 ft | 353 kts | 286° |
| 2026-05-04 13:32 | 47.61351 | 18.14401 | 21101 ft | 351 kts | 286° |
| 2026-05-04 13:33 | 47.62070 | 18.10980 | 20725 ft | 350 kts | 286° |
| 2026-05-04 13:33 | 47.62794 | 18.07535 | 20358 ft | 349 kts | 286° |
| 2026-05-04 13:33 | 47.63515 | 18.04098 | 19992 ft | 348 kts | 285° |
| 2026-05-04 13:33 | 47.64233 | 18.00672 | 19625 ft | 348 kts | 285° |
| 2026-05-04 13:34 | 47.64948 | 17.97250 | 19256 ft | 347 kts | 285° |
| 2026-05-04 13:34 | 47.65664 | 17.93819 | 18892 ft | 347 kts | 285° |
| 2026-05-04 13:34 | 47.66376 | 17.90399 | 18520 ft | 347 kts | 285° |
| 2026-05-04 13:34 | 47.67088 | 17.86981 | 18111 ft | 346 kts | 285° |
| 2026-05-04 13:35 | 47.67793 | 17.83598 | 17700 ft | 340 kts | 285° |
| 2026-05-04 13:35 | 47.69158 | 17.77000 | 16995 ft | 328 kts | 284° |
| 2026-05-04 13:35 | 47.69823 | 17.73782 | 16625 ft | 324 kts | 284° |
| 2026-05-04 13:36 | 47.70479 | 17.70603 | 16283 ft | 320 kts | 284° |
| 2026-05-04 13:36 | 47.71126 | 17.67455 | 15937 ft | 317 kts | 284° |
| 2026-05-04 13:36 | 47.71764 | 17.64338 | 15594 ft | 314 kts | 284° |
| 2026-05-04 13:36 | 47.72398 | 17.61252 | 15263 ft | 311 kts | 284° |
| 2026-05-04 13:37 | 47.73029 | 17.58187 | 14919 ft | 309 kts | 284° |
| 2026-05-04 13:37 | 47.73645 | 17.55188 | 14588 ft | 306 kts | 284° |
| 2026-05-04 13:37 | 47.74259 | 17.52171 | 14270 ft | 304 kts | 285° |
| 2026-05-04 13:37 | 47.74611 | 17.50127 | 14054 ft | 300 kts | 275° |
| 2026-05-04 13:38 | 47.74503 | 17.46150 | 13895 ft | 288 kts | 261° |
| 2026-05-04 13:38 | 47.74274 | 17.43137 | 13775 ft | 301 kts | 260° |
| 2026-05-04 13:38 | 47.74030 | 17.40001 | 13627 ft | 308 kts | 261° |
| 2026-05-04 13:38 | 47.73786 | 17.36815 | 13461 ft | 311 kts | 261° |
| 2026-05-04 13:39 | 47.73551 | 17.33620 | 13263 ft | 310 kts | 261° |
| 2026-05-04 13:39 | 47.73322 | 17.30457 | 13130 ft | 307 kts | 262° |
| 2026-05-04 13:39 | 47.73173 | 17.28378 | 12982 ft | 306 kts | 262° |
| 2026-05-04 13:39 | 47.72943 | 17.25212 | 12849 ft | 302 kts | 261° |
| 2026-05-04 13:40 | 47.72723 | 17.22169 | 12692 ft | 300 kts | 262° |
| 2026-05-04 13:40 | 47.72503 | 17.19107 | 12560 ft | 296 kts | 262° |
| 2026-05-04 13:40 | 47.72285 | 17.16084 | 12429 ft | 293 kts | 261° |
| 2026-05-04 13:40 | 47.72064 | 17.13079 | 12273 ft | 292 kts | 261° |
| 2026-05-04 13:41 | 47.71844 | 17.10075 | 12132 ft | 292 kts | 261° |
| 2026-05-04 13:41 | 47.71685 | 17.07068 | 12008 ft | 295 kts | 271° |
| 2026-05-04 13:41 | 47.72184 | 17.04089 | 11858 ft | 304 kts | 293° |
| 2026-05-04 13:42 | 47.74618 | 16.98857 | 11580 ft | 309 kts | 303° |
| 2026-05-04 13:42 | 47.75924 | 16.96323 | 11427 ft | 308 kts | 303° |
| 2026-05-04 13:42 | 47.77210 | 16.93829 | 11286 ft | 307 kts | 304° |
| 2026-05-04 13:42 | 47.78515 | 16.91275 | 11126 ft | 304 kts | 303° |
| 2026-05-04 13:43 | 47.79757 | 16.88830 | 10973 ft | 297 kts | 302° |
| 2026-05-04 13:43 | 47.80982 | 16.86407 | 10823 ft | 289 kts | 303° |
| 2026-05-04 13:43 | 47.82177 | 16.84023 | 10701 ft | 287 kts | 302° |
| 2026-05-04 13:43 | 47.83363 | 16.81647 | 10559 ft | 285 kts | 303° |
| 2026-05-04 13:44 | 47.84546 | 16.79276 | 10439 ft | 284 kts | 303° |
| 2026-05-04 13:44 | 47.85726 | 16.76909 | 10304 ft | 283 kts | 303° |
| 2026-05-04 13:44 | 47.86896 | 16.74561 | 10174 ft | 283 kts | 303° |
| 2026-05-04 13:44 | 47.88065 | 16.72214 | 10051 ft | 282 kts | 303° |
| 2026-05-04 13:45 | 47.89234 | 16.69864 | 9907 ft | 282 kts | 302° |
| 2026-05-04 13:45 | 47.90399 | 16.67523 | 9772 ft | 281 kts | 302° |
| 2026-05-04 13:45 | 47.91663 | 16.65276 | 9634 ft | 284 kts | 310° |
| 2026-05-04 13:45 | 47.93102 | 16.63244 | 9485 ft | 285 kts | 314° |
| 2026-05-04 13:46 | 47.94568 | 16.61263 | 9354 ft | 284 kts | 314° |
| 2026-05-04 13:46 | 47.96026 | 16.59278 | 9217 ft | 283 kts | 314° |
| 2026-05-04 13:46 | 47.97468 | 16.57281 | 9087 ft | 283 kts | 313° |
| 2026-05-04 13:46 | 47.98884 | 16.55298 | 8954 ft | 282 kts | 313° |
| 2026-05-04 13:47 | 48.00313 | 16.53284 | 8819 ft | 282 kts | 313° |
| 2026-05-04 13:47 | 48.01736 | 16.51258 | 8693 ft | 282 kts | 310° |
| 2026-05-04 13:47 | 48.02859 | 16.48916 | 8558 ft | 276 kts | 297° |
| 2026-05-04 13:47 | 48.03810 | 16.46419 | 8426 ft | 276 kts | 297° |
| 2026-05-04 13:48 | 48.04773 | 16.43942 | 8303 ft | 276 kts | 296° |
| 2026-05-04 13:48 | 48.05747 | 16.41471 | 8157 ft | 276 kts | 296° |
| 2026-05-04 13:48 | 48.06728 | 16.39003 | 8029 ft | 275 kts | 298° |
| 2026-05-04 13:48 | 48.07704 | 16.36550 | 7879 ft | 274 kts | 297° |
| 2026-05-04 13:49 | 48.08678 | 16.34096 | 7747 ft | 273 kts | 298° |
| 2026-05-04 13:49 | 48.09638 | 16.31687 | 7615 ft | 272 kts | 297° |
| 2026-05-04 13:49 | 48.10604 | 16.29258 | 7484 ft | 271 kts | 297° |
| 2026-05-04 13:49 | 48.11563 | 16.26843 | 7353 ft | 269 kts | 298° |
| 2026-05-04 13:50 | 48.12482 | 16.24420 | 7229 ft | 266 kts | 294° |
| 2026-05-04 13:50 | 48.13290 | 16.21938 | 7090 ft | 264 kts | 292° |
| 2026-05-04 13:50 | 48.14067 | 16.19454 | 7020 ft | 265 kts | 292° |
| 2026-05-04 13:50 | 48.14873 | 16.16937 | 6850 ft | 269 kts | 292° |
| 2026-05-04 13:51 | 48.15691 | 16.14404 | 6757 ft | 271 kts | 293° |
| 2026-05-04 13:51 | 48.16538 | 16.11856 | 6589 ft | 273 kts | 293° |
| 2026-05-04 13:51 | 48.17367 | 16.09291 | 6448 ft | 274 kts | 293° |
| 2026-05-04 13:51 | 48.18365 | 16.06856 | 6379 ft | 276 kts | 312° |
| 2026-05-04 13:52 | 48.21844 | 16.05125 | 6012 ft | 268 kts | 11° |
| 2026-05-04 13:52 | 48.23569 | 16.06021 | 5902 ft | 258 kts | 27° |
| 2026-05-04 13:52 | 48.24927 | 16.07652 | 5752 ft | 248 kts | 58° |
| 2026-05-04 13:53 | 48.25525 | 16.09981 | 5670 ft | 236 kts | 85° |
| 2026-05-04 13:53 | 48.25465 | 16.12384 | 5559 ft | 226 kts | 106° |
| 2026-05-04 13:53 | 48.24911 | 16.14551 | 5463 ft | 219 kts | 117° |
| 2026-05-04 13:54 | 48.23610 | 16.18635 | 5250 ft | 215 kts | 118° |
| 2026-05-04 13:54 | 48.22994 | 16.20645 | 5184 ft | 207 kts | 116° |
| 2026-05-04 13:54 | 48.21716 | 16.24487 | 4830 ft | 209 kts | 121° |
| 2026-05-04 13:55 | 48.21039 | 16.26421 | 4539 ft | 210 kts | 118° |
| 2026-05-04 13:55 | 48.19786 | 16.30326 | 3986 ft | 204 kts | 119° |
| 2026-05-04 13:55 | 48.19178 | 16.32192 | 3721 ft | 193 kts | 119° |
| 2026-05-04 13:56 | 48.18616 | 16.33919 | 3461 ft | 177 kts | 119° |
| 2026-05-04 13:56 | 48.18099 | 16.35502 | 3238 ft | 160 kts | 119° |
| 2026-05-04 13:56 | 48.17163 | 16.38354 | 2837 ft | 152 kts | 121° |
| 2026-05-04 13:57 | 48.16707 | 16.39753 | 2636 ft | 150 kts | 121° |
| 2026-05-04 13:57 | 48.16250 | 16.41141 | 2412 ft | 145 kts | 119° |
| 2026-05-04 13:58 | 48.14918 | 16.45523 | 1679 ft | 159 kts | 119° |
| 2026-05-04 13:58 | 48.13979 | 16.48333 | 1571 ft | 176 kts | 126° |